sensor_id;sensor_type;location;lat;lon;timestamp;temperature;humidity
21439;DHT22;10880;50.302;18.736;2023-02-01T00:00:58;7.90;62.20
21439;DHT22;10880;50.302;18.736;2023-02-01T00:03:24;7.90;62.30
21439;DHT22;10880;50.302;18.736;2023-02-01T00:06:01;7.90;62.30
21439;DHT22;10880;50.302;18.736;2023-02-01T00:08:28;7.90;62.20
21439;DHT22;10880;50.302;18.736;2023-02-01T00:10:59;7.80;62.10
21439;DHT22;10880;50.302;18.736;2023-02-01T00:13:28;7.80;62.40
21439;DHT22;10880;50.302;18.736;2023-02-01T00:16:03;7.80;62.40
21439;DHT22;10880;50.302;18.736;2023-02-01T00:18:32;7.80;62.40
21439;DHT22;10880;50.302;18.736;2023-02-01T00:20:59;7.80;62.10
21439;DHT22;10880;50.302;18.736;2023-02-01T00:23:25;7.70;62.00
21439;DHT22;10880;50.302;18.736;2023-02-01T00:25:52;7.70;62.30
21439;DHT22;10880;50.302;18.736;2023-02-01T00:28:19;7.70;62.40
21439;DHT22;10880;50.302;18.736;2023-02-01T00:31:01;7.70;62.30
21439;DHT22;10880;50.302;18.736;2023-02-01T00:33:31;7.70;62.80
21439;DHT22;10880;50.302;18.736;2023-02-01T00:36:00;7.70;62.30
21439;DHT22;10880;50.302;18.736;2023-02-01T00:38:31;7.70;62.30
21439;DHT22;10880;50.302;18.736;2023-02-01T00:43:39;7.70;62.70
21439;DHT22;10880;50.302;18.736;2023-02-01T00:46:08;7.60;62.70
21439;DHT22;10880;50.302;18.736;2023-02-01T00:48:35;7.60;63.30
21439;DHT22;10880;50.302;18.736;2023-02-01T00:51:05;7.70;63.00
21439;DHT22;10880;50.302;18.736;2023-02-01T00:53:37;7.60;63.00
21439;DHT22;10880;50.302;18.736;2023-02-01T00:56:05;7.70;63.00
21439;DHT22;10880;50.302;18.736;2023-02-01T00:58:33;7.60;63.60
21439;DHT22;10880;50.302;18.736;2023-02-01T01:01:06;7.60;63.50
21439;DHT22;10880;50.302;18.736;2023-02-01T01:03:36;7.60;63.50
21439;DHT22;10880;50.302;18.736;2023-02-01T01:06:12;7.50;63.40
21439;DHT22;10880;50.302;18.736;2023-02-01T01:08:40;7.50;63.40
21439;DHT22;10880;50.302;18.736;2023-02-01T01:11:15;7.50;63.30
21439;DHT22;10880;50.302;18.736;2023-02-01T01:13:43;7.50;63.40
21439;DHT22;10880;50.302;18.736;2023-02-01T01:16:10;7.50;63.10
21439;DHT22;10880;50.302;18.736;2023-02-01T01:18:37;7.40;63.10
21439;DHT22;10880;50.302;18.736;2023-02-01T01:21:05;7.40;63.00
21439;DHT22;10880;50.302;18.736;2023-02-01T01:23:32;7.30;63.20
21439;DHT22;10880;50.302;18.736;2023-02-01T01:25:59;7.30;63.20
21439;DHT22;10880;50.302;18.736;2023-02-01T01:28:26;7.30;63.10
21439;DHT22;10880;50.302;18.736;2023-02-01T01:30:52;7.20;62.70
21439;DHT22;10880;50.302;18.736;2023-02-01T01:33:19;7.20;63.00
21439;DHT22;10880;50.302;18.736;2023-02-01T01:35:45;7.20;62.90
21439;DHT22;10880;50.302;18.736;2023-02-01T01:38:14;7.10;62.90
21439;DHT22;10880;50.302;18.736;2023-02-01T01:40:45;7.10;63.10
21439;DHT22;10880;50.302;18.736;2023-02-01T01:43:19;7.10;63.50
21439;DHT22;10880;50.302;18.736;2023-02-01T01:45:49;7.00;63.40
21439;DHT22;10880;50.302;18.736;2023-02-01T01:48:25;7.00;63.50
21439;DHT22;10880;50.302;18.736;2023-02-01T01:51:04;7.00;63.50
21439;DHT22;10880;50.302;18.736;2023-02-01T01:53:41;6.90;63.60
21439;DHT22;10880;50.302;18.736;2023-02-01T01:56:11;6.90;63.60
21439;DHT22;10880;50.302;18.736;2023-02-01T01:58:38;6.90;63.60
21439;DHT22;10880;50.302;18.736;2023-02-01T02:01:05;6.90;63.60
21439;DHT22;10880;50.302;18.736;2023-02-01T02:03:42;6.90;63.30
21439;DHT22;10880;50.302;18.736;2023-02-01T02:06:21;6.90;63.80
21439;DHT22;10880;50.302;18.736;2023-02-01T02:08:48;6.80;63.50
21439;DHT22;10880;50.302;18.736;2023-02-01T02:11:16;6.80;63.30
21439;DHT22;10880;50.302;18.736;2023-02-01T02:13:48;6.80;63.80
21439;DHT22;10880;50.302;18.736;2023-02-01T02:19:31;6.80;64.00
21439;DHT22;10880;50.302;18.736;2023-02-01T02:36:00;6.70;64.20
21439;DHT22;10880;50.302;18.736;2023-02-01T02:38:41;6.70;64.20
21439;DHT22;10880;50.302;18.736;2023-02-01T02:41:13;6.70;64.30
21439;DHT22;10880;50.302;18.736;2023-02-01T02:44:28;6.70;64.20
21439;DHT22;10880;50.302;18.736;2023-02-01T02:47:16;6.70;64.20
21439;DHT22;10880;50.302;18.736;2023-02-01T02:52:51;6.70;64.10
21439;DHT22;10880;50.302;18.736;2023-02-01T02:55:52;6.70;64.10
21439;DHT22;10880;50.302;18.736;2023-02-01T02:58:39;6.70;64.00
21439;DHT22;10880;50.302;18.736;2023-02-01T03:01:29;6.70;64.20
21439;DHT22;10880;50.302;18.736;2023-02-01T03:04:14;6.70;64.30
21439;DHT22;10880;50.302;18.736;2023-02-01T03:06:45;6.70;64.00
21439;DHT22;10880;50.302;18.736;2023-02-01T03:09:28;6.70;64.00
21439;DHT22;10880;50.302;18.736;2023-02-01T03:12:04;6.70;64.20
21439;DHT22;10880;50.302;18.736;2023-02-01T03:14:53;6.70;64.20
21439;DHT22;10880;50.302;18.736;2023-02-01T03:17:27;6.70;64.20
21439;DHT22;10880;50.302;18.736;2023-02-01T03:20:01;6.70;64.40
21439;DHT22;10880;50.302;18.736;2023-02-01T03:22:29;6.70;64.40
21439;DHT22;10880;50.302;18.736;2023-02-01T03:25:03;6.70;64.50
21439;DHT22;10880;50.302;18.736;2023-02-01T03:28:20;6.70;64.50
21439;DHT22;10880;50.302;18.736;2023-02-01T03:30:35;6.70;64.60
21439;DHT22;10880;50.302;18.736;2023-02-01T03:33:13;6.70;64.60
21439;DHT22;10880;50.302;18.736;2023-02-01T03:41:36;6.70;64.60
21439;DHT22;10880;50.302;18.736;2023-02-01T03:44:32;6.60;64.60
21439;DHT22;10880;50.302;18.736;2023-02-01T03:52:16;6.60;64.20
21439;DHT22;10880;50.302;18.736;2023-02-01T03:54:45;6.60;64.40
21439;DHT22;10880;50.302;18.736;2023-02-01T03:57:20;6.60;64.50
21439;DHT22;10880;50.302;18.736;2023-02-01T03:59:48;6.60;64.50
21439;DHT22;10880;50.302;18.736;2023-02-01T04:02:16;6.70;64.50
21439;DHT22;10880;50.302;18.736;2023-02-01T04:04:43;6.60;64.10
21439;DHT22;10880;50.302;18.736;2023-02-01T04:07:12;6.60;64.10
21439;DHT22;10880;50.302;18.736;2023-02-01T04:09:38;6.60;63.90
21439;DHT22;10880;50.302;18.736;2023-02-01T04:12:05;6.60;64.10
21439;DHT22;10880;50.302;18.736;2023-02-01T04:14:32;6.60;64.10
21439;DHT22;10880;50.302;18.736;2023-02-01T04:16:59;6.60;64.00
21439;DHT22;10880;50.302;18.736;2023-02-01T04:19:25;6.60;64.10
21439;DHT22;10880;50.302;18.736;2023-02-01T04:21:52;6.60;64.00
21439;DHT22;10880;50.302;18.736;2023-02-01T04:24:18;6.70;64.00
21439;DHT22;10880;50.302;18.736;2023-02-01T04:26:44;6.70;64.10
21439;DHT22;10880;50.302;18.736;2023-02-01T04:29:11;6.70;64.00
21439;DHT22;10880;50.302;18.736;2023-02-01T04:31:40;6.70;64.40
21439;DHT22;10880;50.302;18.736;2023-02-01T04:34:07;6.70;64.40
21439;DHT22;10880;50.302;18.736;2023-02-01T04:39:00;6.80;64.10
21439;DHT22;10880;50.302;18.736;2023-02-01T04:41:27;6.80;64.20
21439;DHT22;10880;50.302;18.736;2023-02-01T04:43:54;6.80;64.50
21439;DHT22;10880;50.302;18.736;2023-02-01T04:46:23;6.80;64.10
21439;DHT22;10880;50.302;18.736;2023-02-01T04:48:49;6.80;64.50
21439;DHT22;10880;50.302;18.736;2023-02-01T04:51:16;6.80;64.10
21439;DHT22;10880;50.302;18.736;2023-02-01T04:53:44;6.90;64.20
21439;DHT22;10880;50.302;18.736;2023-02-01T04:56:13;6.90;64.10
21439;DHT22;10880;50.302;18.736;2023-02-01T04:58:40;6.80;64.10
21439;DHT22;10880;50.302;18.736;2023-02-01T05:01:06;6.90;63.90
21439;DHT22;10880;50.302;18.736;2023-02-01T05:03:35;6.90;64.00
21439;DHT22;10880;50.302;18.736;2023-02-01T05:06:02;6.90;63.80
21439;DHT22;10880;50.302;18.736;2023-02-01T05:08:31;6.80;64.10
21439;DHT22;10880;50.302;18.736;2023-02-01T05:10:58;6.90;64.30
21439;DHT22;10880;50.302;18.736;2023-02-01T05:13:25;6.90;63.90
21439;DHT22;10880;50.302;18.736;2023-02-01T05:16:10;6.90;64.40
21439;DHT22;10880;50.302;18.736;2023-02-01T05:18:38;6.90;63.90
21439;DHT22;10880;50.302;18.736;2023-02-01T05:21:08;6.90;63.90
21439;DHT22;10880;50.302;18.736;2023-02-01T05:23:36;6.90;64.50
21439;DHT22;10880;50.302;18.736;2023-02-01T05:26:22;6.90;64.30
21439;DHT22;10880;50.302;18.736;2023-02-01T05:28:48;6.90;63.90
21439;DHT22;10880;50.302;18.736;2023-02-01T05:31:15;6.90;63.90
21439;DHT22;10880;50.302;18.736;2023-02-01T05:33:42;6.90;64.20
21439;DHT22;10880;50.302;18.736;2023-02-01T05:36:08;6.90;63.70
21439;DHT22;10880;50.302;18.736;2023-02-01T05:38:34;6.90;63.80
21439;DHT22;10880;50.302;18.736;2023-02-01T05:41:01;6.90;63.60
21439;DHT22;10880;50.302;18.736;2023-02-01T05:43:28;6.90;63.80
21439;DHT22;10880;50.302;18.736;2023-02-01T05:48:21;6.90;63.70
21439;DHT22;10880;50.302;18.736;2023-02-01T05:50:47;6.90;64.00
21439;DHT22;10880;50.302;18.736;2023-02-01T05:53:14;6.90;63.90
21439;DHT22;10880;50.302;18.736;2023-02-01T05:55:41;6.90;64.00
21439;DHT22;10880;50.302;18.736;2023-02-01T05:58:08;6.90;64.40
21439;DHT22;10880;50.302;18.736;2023-02-01T06:00:35;6.90;64.20
21439;DHT22;10880;50.302;18.736;2023-02-01T06:03:01;7.00;64.20
21439;DHT22;10880;50.302;18.736;2023-02-01T06:05:28;6.90;64.10
21439;DHT22;10880;50.302;18.736;2023-02-01T06:07:54;6.90;64.10
21439;DHT22;10880;50.302;18.736;2023-02-01T06:10:21;7.00;64.00
21439;DHT22;10880;50.302;18.736;2023-02-01T06:12:50;7.00;64.30
21439;DHT22;10880;50.302;18.736;2023-02-01T06:15:17;6.90;64.40
21439;DHT22;10880;50.302;18.736;2023-02-01T06:17:45;7.00;64.30
21439;DHT22;10880;50.302;18.736;2023-02-01T06:20:13;7.00;64.40
21439;DHT22;10880;50.302;18.736;2023-02-01T06:22:40;7.00;64.30
21439;DHT22;10880;50.302;18.736;2023-02-01T06:25:09;7.00;64.00
21439;DHT22;10880;50.302;18.736;2023-02-01T06:27:36;7.00;64.40
21439;DHT22;10880;50.302;18.736;2023-02-01T06:30:04;7.10;64.30
21439;DHT22;10880;50.302;18.736;2023-02-01T06:32:34;7.10;64.40
21439;DHT22;10880;50.302;18.736;2023-02-01T06:35:01;7.10;64.40
21439;DHT22;10880;50.302;18.736;2023-02-01T06:37:27;7.10;64.20
21439;DHT22;10880;50.302;18.736;2023-02-01T06:39:55;7.10;64.10
21439;DHT22;10880;50.302;18.736;2023-02-01T06:42:22;7.10;64.00
21439;DHT22;10880;50.302;18.736;2023-02-01T06:44:49;7.10;64.10
21439;DHT22;10880;50.302;18.736;2023-02-01T06:47:16;7.10;64.00
21439;DHT22;10880;50.302;18.736;2023-02-01T06:49:42;7.10;63.80
21439;DHT22;10880;50.302;18.736;2023-02-01T06:52:09;7.20;63.90
21439;DHT22;10880;50.302;18.736;2023-02-01T06:54:35;7.20;63.80
21439;DHT22;10880;50.302;18.736;2023-02-01T06:57:03;7.20;64.20
21439;DHT22;10880;50.302;18.736;2023-02-01T06:59:30;7.20;64.00
21439;DHT22;10880;50.302;18.736;2023-02-01T07:01:57;7.20;64.00
21439;DHT22;10880;50.302;18.736;2023-02-01T07:04:27;7.20;63.80
21439;DHT22;10880;50.302;18.736;2023-02-01T07:06:53;7.30;63.90
21439;DHT22;10880;50.302;18.736;2023-02-01T07:09:22;7.30;63.80
21439;DHT22;10880;50.302;18.736;2023-02-01T07:11:49;7.30;63.90
21439;DHT22;10880;50.302;18.736;2023-02-01T07:14:18;7.30;63.80
21439;DHT22;10880;50.302;18.736;2023-02-01T07:19:17;7.40;63.60
21439;DHT22;10880;50.302;18.736;2023-02-01T07:21:43;7.40;63.80
21439;DHT22;10880;50.302;18.736;2023-02-01T07:24:10;7.40;64.10
21439;DHT22;10880;50.302;18.736;2023-02-01T07:26:37;7.40;63.60
21439;DHT22;10880;50.302;18.736;2023-02-01T07:29:03;7.40;63.70
21439;DHT22;10880;50.302;18.736;2023-02-01T07:31:30;7.50;63.50
21439;DHT22;10880;50.302;18.736;2023-02-01T07:33:57;7.50;63.80
21439;DHT22;10880;50.302;18.736;2023-02-01T07:36:26;7.50;63.80
21439;DHT22;10880;50.302;18.736;2023-02-01T07:38:52;7.50;63.60
21439;DHT22;10880;50.302;18.736;2023-02-01T07:41:19;7.50;63.60
21439;DHT22;10880;50.302;18.736;2023-02-01T07:43:45;7.50;63.60
21439;DHT22;10880;50.302;18.736;2023-02-01T07:46:12;7.50;63.80
21439;DHT22;10880;50.302;18.736;2023-02-01T07:48:42;7.50;63.70
21439;DHT22;10880;50.302;18.736;2023-02-01T07:51:14;7.50;64.00
21439;DHT22;10880;50.302;18.736;2023-02-01T07:53:46;7.50;64.00
21439;DHT22;10880;50.302;18.736;2023-02-01T07:56:15;7.60;63.50
21439;DHT22;10880;50.302;18.736;2023-02-01T07:58:49;7.60;63.80
21439;DHT22;10880;50.302;18.736;2023-02-01T08:01:21;7.60;63.90
21439;DHT22;10880;50.302;18.736;2023-02-01T08:03:58;7.60;63.90
21439;DHT22;10880;50.302;18.736;2023-02-01T08:06:29;7.60;63.80
21439;DHT22;10880;50.302;18.736;2023-02-01T08:08:58;7.60;63.80
21439;DHT22;10880;50.302;18.736;2023-02-01T08:11:25;7.60;63.40
21439;DHT22;10880;50.302;18.736;2023-02-01T08:13:52;7.60;63.70
21439;DHT22;10880;50.302;18.736;2023-02-01T08:16:20;7.60;63.40
21439;DHT22;10880;50.302;18.736;2023-02-01T08:18:47;7.70;63.70
21439;DHT22;10880;50.302;18.736;2023-02-01T08:21:16;7.70;63.20
21439;DHT22;10880;50.302;18.736;2023-02-01T08:23:44;7.70;63.60
21439;DHT22;10880;50.302;18.736;2023-02-01T08:28:47;7.70;63.30
21439;DHT22;10880;50.302;18.736;2023-02-01T08:31:22;7.70;63.50
21439;DHT22;10880;50.302;18.736;2023-02-01T08:33:54;7.70;63.40
21439;DHT22;10880;50.302;18.736;2023-02-01T08:36:22;7.70;63.50
21439;DHT22;10880;50.302;18.736;2023-02-01T08:38:49;7.80;63.00
21439;DHT22;10880;50.302;18.736;2023-02-01T08:41:19;7.80;63.60
21439;DHT22;10880;50.302;18.736;2023-02-01T08:43:47;7.80;63.50
21439;DHT22;10880;50.302;18.736;2023-02-01T08:46:14;7.80;63.50
21439;DHT22;10880;50.302;18.736;2023-02-01T08:48:41;7.80;63.60
21439;DHT22;10880;50.302;18.736;2023-02-01T08:51:11;7.80;63.40
21439;DHT22;10880;50.302;18.736;2023-02-01T08:56:08;7.80;62.90
21439;DHT22;10880;50.302;18.736;2023-02-01T08:58:37;7.80;64.00
21439;DHT22;10880;50.302;18.736;2023-02-01T09:01:13;7.90;63.40
21439;DHT22;10880;50.302;18.736;2023-02-01T09:03:40;7.90;63.60
21439;DHT22;10880;50.302;18.736;2023-02-01T09:06:09;7.90;63.40
21439;DHT22;10880;50.302;18.736;2023-02-01T09:08:38;7.90;63.40
21439;DHT22;10880;50.302;18.736;2023-02-01T09:11:08;7.90;63.30
21439;DHT22;10880;50.302;18.736;2023-02-01T09:13:34;8.00;63.40
21439;DHT22;10880;50.302;18.736;2023-02-01T09:16:02;8.00;63.30
21439;DHT22;10880;50.302;18.736;2023-02-01T09:18:29;8.00;63.40
21439;DHT22;10880;50.302;18.736;2023-02-01T09:21:04;8.00;63.00
21439;DHT22;10880;50.302;18.736;2023-02-01T09:23:32;8.00;63.40
21439;DHT22;10880;50.302;18.736;2023-02-01T09:26:03;8.00;63.30
21439;DHT22;10880;50.302;18.736;2023-02-01T09:28:30;8.10;63.30
21439;DHT22;10880;50.302;18.736;2023-02-01T09:30:58;8.10;63.00
21439;DHT22;10880;50.302;18.736;2023-02-01T09:33:26;8.10;63.30
21439;DHT22;10880;50.302;18.736;2023-02-01T09:36:00;8.10;63.40
21439;DHT22;10880;50.302;18.736;2023-02-01T09:38:27;8.20;63.50
21439;DHT22;10880;50.302;18.736;2023-02-01T09:40:55;8.20;63.50
21439;DHT22;10880;50.302;18.736;2023-02-01T09:43:45;8.20;63.40
21439;DHT22;10880;50.302;18.736;2023-02-01T09:46:22;8.30;63.50
21439;DHT22;10880;50.302;18.736;2023-02-01T09:48:56;8.30;63.50
21439;DHT22;10880;50.302;18.736;2023-02-01T09:52:45;8.50;63.10
21439;DHT22;10880;50.302;18.736;2023-02-01T09:55:21;8.40;63.60
21439;DHT22;10880;50.302;18.736;2023-02-01T09:57:55;8.50;63.60
21439;DHT22;10880;50.302;18.736;2023-02-01T10:00:27;8.50;63.60
21439;DHT22;10880;50.302;18.736;2023-02-01T10:02:56;8.60;63.60
21439;DHT22;10880;50.302;18.736;2023-02-01T10:11:32;8.70;63.50
21439;DHT22;10880;50.302;18.736;2023-02-01T10:27:53;8.90;62.90
21439;DHT22;10880;50.302;18.736;2023-02-01T10:30:25;8.90;62.60
21439;DHT22;10880;50.302;18.736;2023-02-01T10:32:57;8.90;62.70
21439;DHT22;10880;50.302;18.736;2023-02-01T10:35:31;9.00;62.80
21439;DHT22;10880;50.302;18.736;2023-02-01T10:38:01;9.00;62.70
21439;DHT22;10880;50.302;18.736;2023-02-01T10:40:30;9.00;62.50
21439;DHT22;10880;50.302;18.736;2023-02-01T10:42:59;9.00;62.60
21439;DHT22;10880;50.302;18.736;2023-02-01T10:45:28;9.00;62.60
21439;DHT22;10880;50.302;18.736;2023-02-01T10:47:57;9.00;62.80
21439;DHT22;10880;50.302;18.736;2023-02-01T10:50:55;9.00;62.70
21439;DHT22;10880;50.302;18.736;2023-02-01T10:53:31;9.10;62.80
21439;DHT22;10880;50.302;18.736;2023-02-01T10:56:06;9.10;62.60
21439;DHT22;10880;50.302;18.736;2023-02-01T10:58:36;9.10;62.60
21439;DHT22;10880;50.302;18.736;2023-02-01T11:01:15;9.10;62.60
21439;DHT22;10880;50.302;18.736;2023-02-01T11:06:33;9.10;62.70
21439;DHT22;10880;50.302;18.736;2023-02-01T11:09:23;9.10;62.80
21439;DHT22;10880;50.302;18.736;2023-02-01T11:14:32;9.10;62.50
21439;DHT22;10880;50.302;18.736;2023-02-01T11:19:47;9.20;62.60
21439;DHT22;10880;50.302;18.736;2023-02-01T11:22:14;9.20;62.60
21439;DHT22;10880;50.302;18.736;2023-02-01T11:24:44;9.20;62.40
21439;DHT22;10880;50.302;18.736;2023-02-01T11:27:19;9.30;62.60
21439;DHT22;10880;50.302;18.736;2023-02-01T11:30:00;9.30;62.10
21439;DHT22;10880;50.302;18.736;2023-02-01T11:32:30;9.30;62.20
21439;DHT22;10880;50.302;18.736;2023-02-01T11:35:04;9.40;62.30
21439;DHT22;10880;50.302;18.736;2023-02-01T11:37:40;9.30;62.90
21439;DHT22;10880;50.302;18.736;2023-02-01T11:43:00;9.40;62.80
21439;DHT22;10880;50.302;18.736;2023-02-01T11:45:34;9.40;62.80
21439;DHT22;10880;50.302;18.736;2023-02-01T11:48:14;9.50;62.70
21439;DHT22;10880;50.302;18.736;2023-02-01T11:50:46;9.50;62.80
21439;DHT22;10880;50.302;18.736;2023-02-01T11:56:37;9.60;62.80
21439;DHT22;10880;50.302;18.736;2023-02-01T11:59:31;9.60;63.50
21439;DHT22;10880;50.302;18.736;2023-02-01T12:13:20;9.70;62.80
21439;DHT22;10880;50.302;18.736;2023-02-01T12:29:20;9.70;61.90
21439;DHT22;10880;50.302;18.736;2023-02-01T12:34:57;9.60;61.90
21439;DHT22;10880;50.302;18.736;2023-02-01T12:37:51;9.60;61.80
21439;DHT22;10880;50.302;18.736;2023-02-01T12:43:02;9.60;61.80
21439;DHT22;10880;50.302;18.736;2023-02-01T12:45:43;9.60;61.70
21439;DHT22;10880;50.302;18.736;2023-02-01T12:48:28;9.60;61.80
21439;DHT22;10880;50.302;18.736;2023-02-01T12:51:03;9.60;61.70
21439;DHT22;10880;50.302;18.736;2023-02-01T12:56:16;9.60;61.80
21439;DHT22;10880;50.302;18.736;2023-02-01T12:58:56;9.60;61.10
21439;DHT22;10880;50.302;18.736;2023-02-01T13:01:30;9.60;61.80
21439;DHT22;10880;50.302;18.736;2023-02-01T13:06:50;9.60;61.50
21439;DHT22;10880;50.302;18.736;2023-02-01T13:11:45;9.60;61.50
21439;DHT22;10880;50.302;18.736;2023-02-01T13:14:33;9.60;61.80
21439;DHT22;10880;50.302;18.736;2023-02-01T13:17:08;9.60;61.90
21439;DHT22;10880;50.302;18.736;2023-02-01T13:19:49;9.60;61.80
21439;DHT22;10880;50.302;18.736;2023-02-01T13:27:49;9.70;61.90
21439;DHT22;10880;50.302;18.736;2023-02-01T13:30:26;9.70;61.30
21439;DHT22;10880;50.302;18.736;2023-02-01T13:36:04;9.60;61.70
21439;DHT22;10880;50.302;18.736;2023-02-01T13:41:35;9.60;61.60
21439;DHT22;10880;50.302;18.736;2023-02-01T13:44:12;9.50;61.30
21439;DHT22;10880;50.302;18.736;2023-02-01T13:46:46;9.50;61.40
21439;DHT22;10880;50.302;18.736;2023-02-01T13:49:20;9.40;61.30
21439;DHT22;10880;50.302;18.736;2023-02-01T13:51:51;9.40;61.30
21439;DHT22;10880;50.302;18.736;2023-02-01T13:54:34;9.30;60.80
21439;DHT22;10880;50.302;18.736;2023-02-01T13:57:04;9.30;61.40
21439;DHT22;10880;50.302;18.736;2023-02-01T14:10:58;9.10;61.60
21439;DHT22;10880;50.302;18.736;2023-02-01T14:13:38;9.10;61.70
21439;DHT22;10880;50.302;18.736;2023-02-01T14:21:30;9.00;61.50
21439;DHT22;10880;50.302;18.736;2023-02-01T14:24:00;8.90;61.80
21439;DHT22;10880;50.302;18.736;2023-02-01T14:34:29;8.80;61.90
21439;DHT22;10880;50.302;18.736;2023-02-01T14:37:07;8.80;62.10
21439;DHT22;10880;50.302;18.736;2023-02-01T14:47:51;8.80;62.20
21439;DHT22;10880;50.302;18.736;2023-02-01T14:56:27;8.70;62.20
21439;DHT22;10880;50.302;18.736;2023-02-01T14:59:01;8.70;62.50
21439;DHT22;10880;50.302;18.736;2023-02-01T15:01:34;8.70;62.50
21439;DHT22;10880;50.302;18.736;2023-02-01T15:06:43;8.60;62.10
21439;DHT22;10880;50.302;18.736;2023-02-01T15:09:33;8.60;62.60
21439;DHT22;10880;50.302;18.736;2023-02-01T15:14:41;8.60;62.80
21439;DHT22;10880;50.302;18.736;2023-02-01T15:17:23;8.60;62.70
21439;DHT22;10880;50.302;18.736;2023-02-01T15:20:00;8.60;63.00
21439;DHT22;10880;50.302;18.736;2023-02-01T15:22:30;8.60;62.50
21439;DHT22;10880;50.302;18.736;2023-02-01T15:24:58;8.60;62.50
21439;DHT22;10880;50.302;18.736;2023-02-01T15:27:27;8.60;63.00
21439;DHT22;10880;50.302;18.736;2023-02-01T15:29:54;8.60;63.00
21439;DHT22;10880;50.302;18.736;2023-02-01T15:32:39;8.60;63.00
21439;DHT22;10880;50.302;18.736;2023-02-01T15:35:30;8.60;63.20
21439;DHT22;10880;50.302;18.736;2023-02-01T15:43:37;8.60;63.10
21439;DHT22;10880;50.302;18.736;2023-02-01T15:46:09;8.60;63.20
21439;DHT22;10880;50.302;18.736;2023-02-01T15:48:45;8.60;63.30
21439;DHT22;10880;50.302;18.736;2023-02-01T15:51:15;8.60;62.80
21439;DHT22;10880;50.302;18.736;2023-02-01T15:53:48;8.60;63.40
21439;DHT22;10880;50.302;18.736;2023-02-01T15:56:16;8.60;63.40
21439;DHT22;10880;50.302;18.736;2023-02-01T15:58:52;8.50;62.70
21439;DHT22;10880;50.302;18.736;2023-02-01T16:01:19;8.50;63.30
21439;DHT22;10880;50.302;18.736;2023-02-01T16:03:46;8.50;62.90
21439;DHT22;10880;50.302;18.736;2023-02-01T16:06:34;8.50;63.20
21439;DHT22;10880;50.302;18.736;2023-02-01T16:09:12;8.50;63.40
21439;DHT22;10880;50.302;18.736;2023-02-01T16:14:17;8.50;63.50
21439;DHT22;10880;50.302;18.736;2023-02-01T16:16:44;8.50;63.00
21439;DHT22;10880;50.302;18.736;2023-02-01T16:19:10;8.50;63.10
21439;DHT22;10880;50.302;18.736;2023-02-01T16:21:37;8.50;63.30
21439;DHT22;10880;50.302;18.736;2023-02-01T16:24:04;8.50;63.40
21439;DHT22;10880;50.302;18.736;2023-02-01T16:26:32;8.50;63.40
21439;DHT22;10880;50.302;18.736;2023-02-01T16:29:02;8.50;63.60
21439;DHT22;10880;50.302;18.736;2023-02-01T16:31:38;8.60;63.40
21439;DHT22;10880;50.302;18.736;2023-02-01T16:34:13;8.60;63.00
21439;DHT22;10880;50.302;18.736;2023-02-01T16:36:40;8.60;62.70
21439;DHT22;10880;50.302;18.736;2023-02-01T16:39:10;8.60;62.80
21439;DHT22;10880;50.302;18.736;2023-02-01T16:41:40;8.60;63.40
21439;DHT22;10880;50.302;18.736;2023-02-01T16:44:07;8.60;62.70
21439;DHT22;10880;50.302;18.736;2023-02-01T16:46:35;8.60;62.70
21439;DHT22;10880;50.302;18.736;2023-02-01T16:49:05;8.50;63.10
21439;DHT22;10880;50.302;18.736;2023-02-01T16:51:40;8.50;63.20
21439;DHT22;10880;50.302;18.736;2023-02-01T16:54:08;8.50;63.10
21439;DHT22;10880;50.302;18.736;2023-02-01T16:56:34;8.50;63.30
21439;DHT22;10880;50.302;18.736;2023-02-01T16:59:02;8.50;63.20
21439;DHT22;10880;50.302;18.736;2023-02-01T17:01:28;8.50;63.00
21439;DHT22;10880;50.302;18.736;2023-02-01T17:03:57;8.50;63.20
21439;DHT22;10880;50.302;18.736;2023-02-01T17:06:25;8.50;63.10
21439;DHT22;10880;50.302;18.736;2023-02-01T17:08:57;8.50;63.50
21439;DHT22;10880;50.302;18.736;2023-02-01T17:11:24;8.50;63.50
21439;DHT22;10880;50.302;18.736;2023-02-01T17:13:52;8.50;63.20
21439;DHT22;10880;50.302;18.736;2023-02-01T17:16:26;8.50;62.70
21439;DHT22;10880;50.302;18.736;2023-02-01T17:19:00;8.50;63.40
21439;DHT22;10880;50.302;18.736;2023-02-01T17:21:33;8.40;63.20
21439;DHT22;10880;50.302;18.736;2023-02-01T17:24:03;8.00;63.00
21439;DHT22;10880;50.302;18.736;2023-02-01T17:26:30;8.40;63.20
21439;DHT22;10880;50.302;18.736;2023-02-01T17:29:01;8.40;63.10
21439;DHT22;10880;50.302;18.736;2023-02-01T17:31:27;8.40;63.10
21439;DHT22;10880;50.302;18.736;2023-02-01T17:33:55;8.50;62.80
21439;DHT22;10880;50.302;18.736;2023-02-01T17:36:21;8.50;62.90
21439;DHT22;10880;50.302;18.736;2023-02-01T17:38:48;8.50;62.90
21439;DHT22;10880;50.302;18.736;2023-02-01T17:41:14;8.50;62.90
21439;DHT22;10880;50.302;18.736;2023-02-01T17:43:41;8.50;63.00
21439;DHT22;10880;50.302;18.736;2023-02-01T17:46:13;8.50;63.40
21439;DHT22;10880;50.302;18.736;2023-02-01T17:48:43;8.50;63.50
21439;DHT22;10880;50.302;18.736;2023-02-01T17:51:24;8.50;63.10
21439;DHT22;10880;50.302;18.736;2023-02-01T17:53:53;8.50;63.40
21439;DHT22;10880;50.302;18.736;2023-02-01T17:56:22;8.50;63.30
21439;DHT22;10880;50.302;18.736;2023-02-01T17:58:50;8.50;63.40
21439;DHT22;10880;50.302;18.736;2023-02-01T18:01:18;8.50;63.20
21439;DHT22;10880;50.302;18.736;2023-02-01T18:03:45;8.50;63.30
21439;DHT22;10880;50.302;18.736;2023-02-01T18:06:20;8.50;63.10
21439;DHT22;10880;50.302;18.736;2023-02-01T18:08:48;8.50;63.40
21439;DHT22;10880;50.302;18.736;2023-02-01T18:11:17;8.50;63.20
21439;DHT22;10880;50.302;18.736;2023-02-01T18:13:45;7.10;62.50
21439;DHT22;10880;50.302;18.736;2023-02-01T18:16:32;8.50;63.20
21439;DHT22;10880;50.302;18.736;2023-02-01T18:18:59;8.50;63.40
21439;DHT22;10880;50.302;18.736;2023-02-01T18:21:43;8.50;63.20
21439;DHT22;10880;50.302;18.736;2023-02-01T18:24:12;8.50;63.10
21439;DHT22;10880;50.302;18.736;2023-02-01T18:26:39;8.50;63.40
21439;DHT22;10880;50.302;18.736;2023-02-01T18:29:06;8.40;63.00
21439;DHT22;10880;50.302;18.736;2023-02-01T18:31:35;8.40;62.80
21439;DHT22;10880;50.302;18.736;2023-02-01T18:34:04;8.40;63.40
21439;DHT22;10880;50.302;18.736;2023-02-01T18:36:31;8.40;62.70
21439;DHT22;10880;50.302;18.736;2023-02-01T18:38:57;8.40;62.80
21439;DHT22;10880;50.302;18.736;2023-02-01T18:41:24;8.40;63.20
21439;DHT22;10880;50.302;18.736;2023-02-01T18:43:51;8.40;63.00
21439;DHT22;10880;50.302;18.736;2023-02-01T18:46:18;8.40;63.30
21439;DHT22;10880;50.302;18.736;2023-02-01T18:48:46;8.40;63.40
21439;DHT22;10880;50.302;18.736;2023-02-01T18:51:17;8.40;63.30
21439;DHT22;10880;50.302;18.736;2023-02-01T18:53:46;8.40;63.50
21439;DHT22;10880;50.302;18.736;2023-02-01T18:56:16;8.40;63.70
21439;DHT22;10880;50.302;18.736;2023-02-01T18:58:47;8.40;63.60